createdAt,value
2022-11-29T00:09:17.211Z,98.07
2022-11-29T00:14:20.599Z,231.95
2022-11-29T00:19:22.980Z,173.43
2022-11-29T00:24:25.314Z,58.93
2022-11-29T00:29:28.289Z,59.28
2022-11-29T00:34:30.629Z,42.05
2022-11-29T00:39:32.922Z,167.90
2022-11-29T00:44:35.251Z,137.07
2022-11-29T00:49:37.578Z,94.07
2022-11-29T00:54:40.005Z,128.83
2022-11-29T00:59:42.324Z,72.63
2022-11-29T01:04:44.973Z,62.47
2022-11-29T01:09:47.489Z,56.47
2022-11-29T01:14:49.795Z,120.23
2022-11-29T01:19:52.147Z,75.65
2022-11-29T01:24:54.452Z,111.03
2022-11-29T01:29:56.783Z,131.80
2022-11-29T01:34:59.094Z,127.57
2022-11-29T01:40:01.458Z,87.60
2022-11-29T01:45:24.158Z,109.93
2022-11-29T01:50:26.482Z,155.57
2022-11-29T01:55:29.309Z,137.60
2022-11-29T02:00:31.781Z,137.88
2022-11-29T02:05:34.207Z,154.70
2022-11-29T02:10:57.408Z,153.33
2022-11-29T02:16:25.077Z,145.82
2022-11-29T02:22:10.537Z,154.43
2022-11-29T02:27:41.349Z,185.40
2022-11-29T02:33:04.891Z,147.93
2022-11-29T02:38:45.059Z,165.00
2022-11-29T02:43:55.490Z,134.00
2022-11-29T02:49:35.878Z,100.20
2022-11-29T02:55:03.142Z,171.50
2022-11-29T03:00:37.883Z,187.05
2022-11-29T03:06:15.922Z,149.40
2022-11-29T03:11:46.868Z,140.98
2022-11-29T03:16:58.048Z,133.07
2022-11-29T03:22:39.231Z,177.40
2022-11-29T03:27:48.089Z,135.25
2022-11-29T03:33:12.108Z,111.38
2022-11-29T03:38:21.753Z,166.98
2022-11-29T03:43:35.143Z,158.95
2022-11-29T03:48:45.849Z,194.65
2022-11-29T03:54:00.031Z,109.03
2022-11-29T03:59:30.178Z,171.27
2022-11-29T04:04:54.273Z,225.18
2022-11-29T04:10:05.212Z,162.18
2022-11-29T04:15:10.465Z,200.75
2022-11-29T04:20:48.909Z,276.48
2022-11-29T04:26:33.591Z,210.35
2022-11-29T04:31:47.667Z,163.80
2022-11-29T04:37:06.569Z,115.93
2022-11-29T04:42:29.107Z,93.25
2022-11-29T04:47:37.698Z,98.65
2022-11-29T04:53:01.468Z,119.30
2022-11-29T04:58:16.990Z,103.30
2022-11-29T05:03:41.392Z,150.80
2022-11-29T05:08:50.895Z,304.42
2022-11-29T05:13:58.892Z,195.13
2022-11-29T05:19:35.108Z,125.28
2022-11-29T05:24:46.578Z,168.68
2022-11-29T05:30:11.348Z,111.65
2022-11-29T05:35:50.890Z,138.85
2022-11-29T05:41:17.153Z,135.15
2022-11-29T05:46:49.485Z,206.68
2022-11-29T05:52:23.020Z,83.68
2022-11-29T05:57:43.387Z,83.13
2022-11-29T06:02:56.441Z,123.95
2022-11-29T06:08:23.144Z,85.53
2022-11-29T06:13:38.269Z,151.52
2022-11-29T06:19:05.419Z,90.03
2022-11-29T06:24:38.087Z,74.70
2022-11-29T06:29:58.135Z,68.07
2022-11-29T06:35:24.062Z,65.30
2022-11-29T06:40:26.696Z,82.03
2022-11-29T06:45:29.236Z,79.38
2022-11-29T06:50:57.706Z,109.30
2022-11-29T06:56:28.863Z,80.40
2022-11-29T07:01:51.524Z,93.68
2022-11-29T07:06:54.130Z,63.35
2022-11-29T07:11:56.723Z,60.00
2022-11-29T07:17:13.067Z,64.23
2022-11-29T07:22:50.879Z,92.95
2022-11-29T07:28:16.474Z,61.55
2022-11-29T07:33:21.098Z,68.05
2022-11-29T07:38:32.455Z,93.05
2022-11-29T07:43:46.799Z,87.65
2022-11-29T07:48:49.150Z,101.40
2022-11-29T07:53:51.475Z,91.63
2022-11-29T07:58:53.830Z,75.83
2022-11-29T08:03:56.209Z,82.43
2022-11-29T08:08:59.392Z,70.57
2022-11-29T08:14:03.461Z,66.40
2022-11-29T08:19:05.829Z,61.38
2022-11-29T08:24:08.395Z,78.40
2022-11-29T08:29:10.781Z,65.30
2022-11-29T08:34:13.100Z,61.63
2022-11-29T08:39:15.564Z,73.37
2022-11-29T08:44:17.851Z,48.30
2022-11-29T08:49:20.196Z,76.80
2022-11-29T08:54:22.479Z,58.42
2022-11-29T08:59:24.865Z,50.60
2022-11-29T09:04:27.207Z,50.30
2022-11-29T09:09:29.523Z,55.40
2022-11-29T09:14:31.995Z,64.40
2022-11-29T09:19:34.319Z,50.90
2022-11-29T09:24:36.710Z,49.53
2022-11-29T09:29:39.095Z,50.60
2022-11-29T09:34:41.477Z,50.13
2022-11-29T09:39:43.791Z,46.30
2022-11-29T09:45:14.552Z,44.90
2022-11-29T09:50:34.316Z,37.30
2022-11-29T09:55:49.262Z,41.60
2022-11-29T10:01:03.388Z,36.03
2022-11-29T10:06:26.885Z,35.42
2022-11-29T10:11:38.458Z,37.20
2022-11-29T10:16:46.759Z,35.30
2022-11-29T10:21:58.964Z,31.88
2022-11-29T10:27:01.664Z,35.60
2022-11-29T10:32:12.923Z,32.45
2022-11-29T10:37:21.419Z,23.50
2022-11-29T10:42:26.692Z,24.33
2022-11-29T10:47:29.283Z,28.15
2022-11-29T10:52:31.679Z,32.67
2022-11-29T10:57:34.008Z,27.80
2022-11-29T11:02:36.956Z,22.10
2022-11-29T11:07:39.489Z,25.80
2022-11-29T11:13:01.615Z,30.27
2022-11-29T11:18:06.783Z,27.27
2022-11-29T11:23:25.661Z,25.90
2022-11-29T11:28:43.680Z,25.70
2022-11-29T11:33:46.359Z,30.38
2022-11-29T11:38:56.504Z,32.20
2022-11-29T11:44:00.177Z,27.67
2022-11-29T11:49:02.544Z,30.30
2022-11-29T11:54:05.868Z,27.63
2022-11-29T12:04:30.504Z,25.10
2022-11-29T12:09:32.842Z,30.15
2022-11-29T12:15:06.125Z,30.17
2022-11-29T12:20:32.867Z,35.53
2022-11-29T12:25:41.092Z,29.50
2022-11-29T12:31:12.348Z,21.65
2022-11-29T12:36:30.979Z,29.17
2022-11-29T12:41:49.511Z,28.27
2022-11-29T12:47:35.731Z,30.23
2022-11-29T12:53:05.769Z,24.60
2022-11-29T12:58:25.436Z,26.42
2022-11-29T13:03:56.924Z,21.88
2022-11-29T13:09:22.239Z,25.88
2022-11-29T13:14:44.213Z,25.83
2022-11-29T13:19:55.578Z,24.10
2022-11-29T13:25:01.723Z,24.83
2022-11-29T13:30:05.320Z,27.45
2022-11-29T13:35:42.611Z,30.38
2022-11-29T13:41:04.980Z,33.75
2022-11-29T13:46:42.407Z,27.63
2022-11-29T13:51:45.937Z,30.73
2022-11-29T13:56:48.354Z,26.70
2022-11-29T14:01:52.698Z,25.03
2022-11-29T14:07:09.575Z,28.42
2022-11-29T14:12:28.669Z,30.02
2022-11-29T14:17:46.880Z,27.75
2022-11-29T14:23:04.445Z,29.85
2022-11-29T14:28:28.481Z,30.27
2022-11-29T14:33:52.453Z,33.00
2022-11-29T14:39:18.860Z,27.23
2022-11-29T14:44:29.129Z,29.17
2022-11-29T14:49:39.747Z,29.40
2022-11-29T14:54:58.564Z,28.88
2022-11-29T15:00:01.721Z,34.70
2022-11-29T15:05:20.848Z,35.40
2022-11-29T15:10:28.437Z,38.50
2022-11-29T15:15:42.647Z,38.03
2022-11-29T15:21:14.562Z,35.95
2022-11-29T15:26:19.974Z,31.60
2022-11-29T15:31:22.381Z,28.88
2022-11-29T15:36:24.934Z,36.70
2022-11-29T15:41:30.081Z,33.33
2022-11-29T15:46:35.990Z,34.25
2022-11-29T15:51:39.361Z,30.48
2022-11-29T16:01:59.463Z,36.40
2022-11-29T16:07:04.672Z,37.83
2022-11-29T16:12:18.177Z,37.08
2022-11-29T16:17:20.774Z,33.85
2022-11-29T16:22:24.211Z,37.13
2022-11-29T16:32:41.527Z,47.22
2022-11-29T16:37:45.416Z,43.78
2022-11-29T16:43:21.851Z,47.80
2022-11-29T16:48:24.128Z,55.97
2022-11-29T16:53:35.076Z,45.67
2022-11-29T16:59:17.188Z,55.05
2022-11-29T17:04:00.857Z,60.85
2022-11-29T17:09:04.437Z,64.45
2022-11-29T17:14:08.371Z,62.45
2022-11-29T17:19:12.758Z,61.17
2022-11-29T17:24:17.338Z,53.85
2022-11-29T17:29:19.826Z,48.75
2022-11-29T17:34:22.240Z,44.27
2022-11-29T17:39:24.671Z,29.60
2022-11-29T17:44:27.008Z,27.63
2022-11-29T17:49:29.352Z,20.75
2022-11-29T17:54:31.791Z,18.37
2022-11-29T17:59:34.121Z,18.80
2022-11-29T18:04:36.424Z,18.60
2022-11-29T18:09:38.744Z,17.45
2022-11-29T18:14:41.093Z,20.77
2022-11-29T18:19:43.546Z,19.07
2022-11-29T18:24:45.886Z,18.57
2022-11-29T18:29:48.473Z,24.75
2022-11-29T18:34:50.937Z,20.77
2022-11-29T18:39:53.279Z,19.33
2022-11-29T18:44:58.868Z,23.77
2022-11-29T18:50:01.367Z,20.08
2022-11-29T18:55:03.920Z,21.97
2022-11-29T19:00:07.018Z,20.57
2022-11-29T19:05:09.503Z,23.15
2022-11-29T19:10:12.071Z,17.90
2022-11-29T19:15:14.461Z,20.55
2022-11-29T19:20:16.845Z,22.87
2022-11-29T19:25:19.181Z,22.67
2022-11-29T19:30:21.519Z,21.77
2022-11-29T19:35:23.854Z,21.23
2022-11-29T19:40:26.330Z,24.40
2022-11-29T19:45:28.644Z,22.87
2022-11-29T19:50:30.994Z,21.77
2022-11-29T19:55:33.346Z,24.80
2022-11-29T20:00:35.672Z,37.93
2022-11-29T20:05:38.030Z,37.20
2022-11-29T20:10:40.336Z,42.17
2022-11-29T20:15:42.730Z,46.70
2022-11-29T20:20:45.077Z,49.70
2022-11-29T20:25:50.284Z,61.70
2022-11-29T20:30:53.053Z,61.85
2022-11-29T20:36:25.052Z,64.32
2022-11-29T20:41:45.363Z,59.00
2022-11-29T20:46:47.972Z,50.10
2022-11-29T20:52:02.329Z,52.65
2022-11-29T20:57:04.696Z,42.28
2022-11-29T21:02:07.032Z,47.80
2022-11-29T21:07:09.335Z,40.63
2022-11-29T21:12:12.280Z,36.53
2022-11-29T21:17:15.143Z,34.13
2022-11-29T21:22:28.054Z,34.30
2022-11-29T21:27:34.404Z,29.90
2022-11-29T21:32:36.964Z,23.05
2022-11-29T21:37:39.406Z,24.87
2022-11-29T21:42:41.877Z,26.13
2022-11-29T21:47:44.791Z,27.13
2022-11-29T21:52:50.578Z,28.40
2022-11-29T21:57:52.917Z,29.67
2022-11-29T22:02:56.288Z,30.55
2022-11-29T22:07:58.722Z,32.28
2022-11-29T22:13:01.059Z,41.27
2022-11-29T22:18:03.550Z,37.77
2022-11-29T22:23:05.923Z,39.00
2022-11-29T22:28:08.208Z,48.70
2022-11-29T22:33:13.419Z,46.78
2022-11-29T22:38:16.047Z,47.75
2022-11-29T22:43:18.342Z,42.13
2022-11-29T22:48:20.644Z,48.83
2022-11-29T22:53:22.943Z,48.83
2022-11-29T22:58:25.472Z,45.58
2022-11-29T23:03:27.958Z,51.10
2022-11-29T23:08:30.455Z,55.77
2022-11-29T23:13:34.931Z,48.63
2022-11-29T23:18:37.679Z,51.08
2022-11-29T23:23:40.345Z,54.13
2022-11-29T23:28:42.666Z,53.78
2022-11-29T23:33:45.493Z,59.75
2022-11-29T23:38:47.938Z,57.33
2022-11-29T23:43:50.368Z,62.57
2022-11-29T23:48:52.840Z,60.73
2022-11-29T23:53:55.173Z,61.33
2022-11-29T23:58:57.489Z,63.07
